Etusivu
METAR-TAF:

METAR-TAF

Lentoasemat :

Hutchinson County Airport

Borger, Texas, Yhdysvallat

Leveyspiiri: 35-41-42N, Pituuspiiri: 101-23-42W, korkeus merenpinnasta: 931 m

Tämänhetkinen sää

Tämä raportti tehtiin 43 minuuttia sitten, kello 05.51 UTC
Tuuli 4 kn lännestä/lounaasta
Lämpötila 3°C
Kosteus 75%
Ilmanpaine 1017 hPa
Näkyvyys: 16.1 km
selkeää

METAR: KBGD 260551Z AUTO 25004KT 10SM CLR 03/M01 A3003 RMK AO2 SLP166 T00331011 10128 20028 401560022 51007

Aika: 00:34 (06:34 UTC)


TAF: puuttuu

Säähavainnot ja -ennusteet yli 4000 lentoasemalta (METAR- ja TAF-raportit).

Käytössä olevat sääasemat on merkitty karttaan keltaisilla ja punaisilla pisteillä.

Aseta hiiri pisteen päälle nähdäksesi sääaseman nimen.

Klikkaa sitten nähdäksesi säähavainnot ja -ennusteet.

Kartan vaihtaminen: klikkaa mustalla rastilla varustettuja vihreitä pisteitä, niin voit zoomata sisään; viivalla varustettua vihreää pistettä, niin voit zoomata ulos tai vihreitä nuolia, niin pääset viereisille kartoille.


METAR-TAF: